TimeMDT,TemperatureF,Dew PointF,Humidity,Sea Level PressureIn,VisibilityMPH,Wind Direction,Wind SpeedMPH,Gust SpeedMPH,PrecipitationIn,Events,Conditions,WindDirDegrees,DateUTC
12:00 AM,45,31,45,,,WSW,24.2,,,,,250,2013-10-08 06:00:00
12:00 AM,44.8,30.6,57,-9999,-9999.0,WSW,24.2,-,N/A,,Unknown,250,2013-10-08 06:00:00
1:00 AM,43.9,28.8,55,-9999,-9999.0,WSW,26.5,-,N/A,,Unknown,250,2013-10-08 07:00:00
2:00 AM,43.9,28.8,55,-9999,-9999.0,West,21.9,-,N/A,,Unknown,270,2013-10-08 08:00:00
3:00 AM,43.3,31.8,64,-9999,-9999.0,WSW,19.6,-,N/A,,Unknown,250,2013-10-08 09:00:00
4:00 AM,44.4,31.8,61,-9999,-9999.0,West,24.2,-,N/A,,Unknown,260,2013-10-08 10:00:00
5:00 AM,44.1,31.8,62,-9999,-9999.0,West,26.5,-,N/A,,Unknown,260,2013-10-08 11:00:00
6:00 AM,43,31,52,,,West,23.0,,,,,270,2013-10-08 12:00:00
6:00 AM,43.0,31.1,63,-9999,-9999.0,West,23.0,-,N/A,,Unknown,270,2013-10-08 12:00:00
7:00 AM,43.2,30.6,61,-9999,-9999.0,WSW,11.5,-,N/A,,Unknown,250,2013-10-08 13:00:00
8:00 AM,43.0,31.1,63,-9999,-9999.0,WSW,21.9,-,N/A,,Unknown,250,2013-10-08 14:00:00
9:00 AM,45.5,30.9,57,-9999,-9999.0,WSW,23.0,-,N/A,,Unknown,250,2013-10-08 15:00:00
10:00 AM,48.4,31.3,52,-9999,-9999.0,West,24.2,-,N/A,,Unknown,260,2013-10-08 16:00:00
11:00 AM,50.4,29.8,45,-9999,-9999.0,West,25.3,-,N/A,,Unknown,260,2013-10-08 17:00:00
12:00 PM,52,29,29,,,West,26.5,,,,,260,2013-10-08 18:00:00
12:00 PM,51.8,29.3,42,-9999,-9999.0,West,26.5,-,N/A,,Unknown,260,2013-10-08 18:00:00
1:00 PM,52.2,29.1,41,-9999,-9999.0,West,24.2,-,N/A,,Unknown,270,2013-10-08 19:00:00
2:00 PM,53.4,30.4,41,-9999,-9999.0,West,24.2,-,N/A,,Unknown,260,2013-10-08 20:00:00
3:00 PM,52.0,28.4,40,-9999,-9999.0,West,23.0,-,N/A,,Unknown,260,2013-10-08 21:00:00
4:00 PM,49.1,34.0,56,-9999,-9999.0,North,11.5,-,N/A,,Unknown,10,2013-10-08 22:00:00
5:00 PM,48.9,36.0,61,-9999,-9999.0,NNE,11.5,-,N/A,,Unknown,20,2013-10-08 23:00:00
6:00 PM,46,35,56,,,NNE,10.4,,,,,20,2013-10-09 00:00:00
6:00 PM,45.5,35.2,67,-9999,-9999.0,NNE,10.4,-,N/A,,Unknown,20,2013-10-09 00:00:00
7:00 PM,41.2,35.4,80,-9999,-9999.0,NNW,10.4,-,N/A,,Unknown,330,2013-10-09 01:00:00
8:00 PM,39.0,34.9,85,-9999,-9999.0,NNW,8.1,-,N/A,,Unknown,330,2013-10-09 02:00:00
9:00 PM,41.9,36.1,80,-9999,-9999.0,NNW,8.1,-,N/A,,Unknown,330,2013-10-09 03:00:00
10:00 PM,42.3,37.0,82,-9999,-9999.0,North,8.1,-,N/A,,Unknown,350,2013-10-09 04:00:00
11:00 PM,41.0,36.3,83,-9999,-9999.0,North,12.7,-,N/A,,Unknown,350,2013-10-09 05:00:00